Time;durP1;ratioP1;P1;durP2;ratioP2;P2;SDS_P1;SDS_P2;PMS_P1;PMS_P2;Temp;Humidity;BMP_temperature;BMP_pressure;BME280_temperature;BME280_humidity;BME280_pressure;Samples;Min_cycle;Max_cycle;Signal;HPM_P1;HPM_P2
2020/12/29 00:00:00;;;;;;;15.10;7.53;;;256.90;1664.00;;;;;;5119102;28;20035;-63
2020/12/29 00:02:25;;;;;;;5.55;3.70;;;256.90;1689.60;;;;;;5118858;28;20102;-64
2020/12/29 00:04:51;;;;;;;5.32;2.10;;;256.90;1664.00;;;;;;5118593;28;20102;-62
2020/12/29 00:07:17;;;;;;;4.75;1.90;;;256.90;1689.60;;;;;;5119526;28;20405;-63
2020/12/29 00:09:43;;;;;;;4.45;2.38;;;256.90;1689.60;;;;;;5118887;28;20020;-63
2020/12/29 00:12:09;;;;;;;3.88;2.58;;;256.90;1689.60;;;;;;5119418;28;20031;-63
2020/12/29 00:14:34;;;;;;;7.18;3.40;;;256.80;1689.60;;;;;;5119410;28;20424;-65
2020/12/29 00:17:00;;;;;;;5.50;2.00;;;256.90;1689.60;;;;;;5118186;28;20352;-63
2020/12/29 00:19:31;;;;;;;5.88;2.03;;;256.90;1689.60;;;;;;5118709;28;20027;-63
2020/12/29 00:21:58;;;;;;;4.20;1.50;;;256.90;1689.60;;;;;;5119005;28;20019;-61
2020/12/29 00:24:24;;;;;;;4.90;2.95;;;256.90;1689.60;;;;;;5118933;28;20024;-66
2020/12/29 00:26:50;;;;;;;3.50;1.67;;;256.90;1689.60;;;;;;5118615;28;20020;-65
2020/12/29 00:29:16;;;;;;;4.88;1.88;;;281.60;1715.20;;;;;;5118798;28;20100;-64
2020/12/29 00:31:42;;;;;;;3.75;1.60;;;256.90;1689.60;;;;;;5118769;28;20114;-63
2020/12/29 00:34:08;;;;;;;6.60;2.25;;;256.90;1715.20;;;;;;5118856;28;20356;-63
2020/12/29 00:36:34;;;;;;;3.80;1.65;;;256.90;1715.20;;;;;;5118412;28;20027;-63
2020/12/29 00:38:59;;;;;;;5.32;1.98;;;256.90;1689.60;;;;;;5118593;28;20054;-64
2020/12/29 00:41:26;;;;;;;3.30;1.60;;;256.90;1715.20;;;;;;5118890;28;20027;-64
2020/12/29 00:43:52;;;;;;;4.18;1.65;;;256.90;1715.20;;;;;;5118540;28;20027;-64
2020/12/29 00:46:20;;;;;;;4.90;2.17;;;256.90;1715.20;;;;;;5118260;28;20152;-63
2020/12/29 00:48:47;;;;;;;3.28;1.25;;;256.90;1715.20;;;;;;5118486;28;20027;-62
2020/12/29 00:51:18;;;;;;;5.15;2.20;;;256.90;1715.20;;;;;;5118266;28;20332;-66
2020/12/29 00:53:45;;;;;;;5.00;2.28;;;256.90;1740.80;;;;;;5118621;28;20035;-66
2020/12/29 00:56:11;;;;;;;4.32;2.00;;;256.90;1715.20;;;;;;5118287;28;20115;-64
2020/12/29 00:58:38;;;;;;;4.75;1.40;;;256.90;1715.20;;;;;;5117941;28;20062;-64
2020/12/29 01:01:09;;;;;;;4.78;1.65;;;281.60;1740.80;;;;;;5118240;28;20313;-62
2020/12/29 01:03:35;;;;;;;4.88;2.17;;;281.60;1740.80;;;;;;5118302;28;20114;-64
2020/12/29 01:06:01;;;;;;;3.25;1.70;;;281.60;1766.40;;;;;;5117863;28;20028;-63
2020/12/29 01:08:27;;;;;;;5.30;1.70;;;256.90;1740.80;;;;;;5118127;28;20020;-63
2020/12/29 01:10:57;;;;;;;3.53;1.70;;;281.60;1740.80;;;;;;5117844;28;20050;-65
2020/12/29 01:13:23;;;;;;;6.35;1.60;;;256.90;1715.20;;;;;;5117546;28;20046;-63
2020/12/29 01:15:50;;;;;;;5.72;1.40;;;256.90;1740.80;;;;;;5117085;28;20337;-64
2020/12/29 01:18:17;;;;;;;3.20;1.75;;;281.60;1740.80;;;;;;5117888;28;20034;-64
2020/12/29 01:20:42;;;;;;;4.00;1.33;;;281.60;1740.80;;;;;;5117987;28;20023;-64
2020/12/29 01:23:08;;;;;;;4.53;1.58;;;256.90;1740.80;;;;;;5118165;28;20080;-63
2020/12/29 01:25:34;;;;;;;2.47;1.30;;;281.60;1766.40;;;;;;5117906;28;20031;-64
2020/12/29 01:28:00;;;;;;;4.07;1.58;;;256.90;1740.80;;;;;;5117820;28;20035;-63
2020/12/29 01:30:26;;;;;;;3.40;1.73;;;256.90;1740.80;;;;;;5118113;28;20016;-64
2020/12/29 01:32:52;;;;;;;5.90;1.40;;;256.90;1740.80;;;;;;5117716;28;20425;-64
2020/12/29 01:35:18;;;;;;;2.90;1.40;;;256.90;1740.80;;;;;;5116973;28;20024;-63
2020/12/29 01:37:44;;;;;;;2.35;1.50;;;256.90;1740.80;;;;;;5117382;28;20039;-63
2020/12/29 01:40:12;;;;;;;2.88;1.40;;;256.80;1766.40;;;;;;5117910;28;20034;-64
2020/12/29 01:42:38;;;;;;;2.70;1.50;;;256.80;1740.80;;;;;;5117584;28;20020;-64
2020/12/29 01:45:15;;;;;;;2.40;1.30;;;256.80;1740.80;;;;;;5117435;28;20375;-64
2020/12/29 01:47:43;;;;;;;4.50;1.33;;;256.90;1766.40;;;;;;5117166;28;20118;-64
2020/12/29 01:50:13;;;;;;;2.55;1.40;;;256.90;1766.40;;;;;;5117351;28;20362;-63
2020/12/29 01:52:39;;;;;;;4.45;1.13;;;256.90;1740.80;;;;;;5117430;28;20076;-64
2020/12/29 01:55:08;;;;;;;4.25;1.40;;;256.90;1740.80;;;;;;5117296;28;20065;-64
2020/12/29 01:57:34;;;;;;;3.10;1.30;;;256.90;1766.40;;;;;;5117833;28;20023;-64
2020/12/29 02:00:11;;;;;;;3.20;1.50;;;256.80;1766.40;;;;;;5117276;28;20357;-63
2020/12/29 02:02:37;;;;;;;9.43;2.03;;;256.80;1740.80;;;;;;5117328;28;20321;-62
2020/12/29 02:05:04;;;;;;;2.88;1.60;;;256.80;1740.80;;;;;;5117473;28;20023;-66
2020/12/29 02:07:31;;;;;;;2.83;1.20;;;256.90;1766.40;;;;;;5117715;28;20036;-63
2020/12/29 02:09:57;;;;;;;6.88;1.70;;;256.90;1740.80;;;;;;5117475;28;20023;-64
2020/12/29 02:12:34;;;;;;;3.30;1.35;;;256.80;1740.80;;;;;;5117438;28;20030;-64
2020/12/29 02:15:02;;;;;;;4.38;1.40;;;256.90;1740.80;;;;;;5117312;28;20424;-64
2020/12/29 02:17:28;;;;;;;3.60;1.80;;;256.90;1740.80;;;;;;5116761;28;20027;-63
2020/12/29 02:19:53;;;;;;;4.13;1.42;;;256.90;1740.80;;;;;;5117363;28;20353;-63
2020/12/29 02:22:24;;;;;;;2.75;1.17;;;256.90;1766.40;;;;;;5116756;28;20023;-65
2020/12/29 02:24:54;;;;;;;3.13;1.20;;;256.90;1740.80;;;;;;5117379;28;20019;-62
2020/12/29 02:27:22;;;;;;;7.43;2.25;;;256.90;1740.80;;;;;;5119967;28;20030;-64
2020/12/29 02:29:48;;;;;;;4.22;1.23;;;256.90;1766.40;;;;;;5121267;28;20400;-62
2020/12/29 02:32:15;;;;;;;4.85;1.23;;;256.80;1766.40;;;;;;5120888;28;20055;-64
2020/12/29 02:34:42;;;;;;;2.88;1.13;;;256.80;1740.80;;;;;;5121489;28;20027;-64
2020/12/29 02:37:08;;;;;;;3.53;1.23;;;256.80;1740.80;;;;;;5120666;28;20035;-65
2020/12/29 02:39:37;;;;;;;3.33;1.38;;;256.80;1766.40;;;;;;5120987;28;20030;-64
2020/12/29 02:42:03;;;;;;;2.60;1.00;;;256.80;1740.80;;;;;;5120379;28;20020;-64
2020/12/29 02:44:29;;;;;;;3.80;1.20;;;256.80;1740.80;;;;;;5120634;28;20028;-66
2020/12/29 02:46:55;;;;;;;2.80;0.90;;;256.80;1740.80;;;;;;5121113;28;20317;-65
2020/12/29 02:49:20;;;;;;;4.82;2.30;;;256.80;1740.80;;;;;;5120750;28;20062;-65
2020/12/29 02:51:47;;;;;;;3.25;1.33;;;256.80;1740.80;;;;;;5120775;28;20329;-64
2020/12/29 02:54:14;;;;;;;2.47;1.00;;;256.80;1740.80;;;;;;5121008;28;20103;-63
2020/12/29 02:56:43;;;;;;;2.58;1.20;;;256.90;1740.80;;;;;;5120944;28;20034;-63
2020/12/29 02:59:12;;;;;;;4.45;1.52;;;256.80;1766.40;;;;;;5120533;28;20019;-63
2020/12/29 03:01:38;;;;;;;4.30;1.60;;;256.80;1740.80;;;;;;5120862;28;20039;-62
2020/12/29 03:04:04;;;;;;;3.40;1.80;;;256.80;1766.40;;;;;;5120783;28;20026;-65
2020/12/29 03:06:30;;;;;;;4.50;1.10;;;256.80;1766.40;;;;;;5120467;28;20028;-62
2020/12/29 03:08:56;;;;;;;3.58;1.38;;;256.90;1766.40;;;;;;5120420;28;20027;-63
2020/12/29 03:11:29;;;;;;;4.80;1.38;;;256.90;1766.40;;;;;;5120379;28;20080;-63
2020/12/29 03:13:57;;;;;;;2.95;1.20;;;281.60;1766.40;;;;;;5120629;28;20085;-64
2020/12/29 03:16:23;;;;;;;3.30;1.23;;;281.70;1766.40;;;;;;5119688;28;20310;-64
2020/12/29 03:18:49;;;;;;;2.45;1.10;;;281.80;1766.40;;;;;;5119912;28;20035;-62
2020/12/29 03:21:15;;;;;;;2.60;1.10;;;281.90;1740.80;;;;;;5120438;28;20055;-63
2020/12/29 03:23:41;;;;;;;2.15;0.90;;;281.90;1740.80;;;;;;5120154;28;20027;-66
2020/12/29 03:26:08;;;;;;;1.50;0.90;;;282.00;1740.80;;;;;;5120090;28;20405;-64
2020/12/29 03:28:34;;;;;;;3.30;1.13;;;282.00;1715.20;;;;;;5120075;28;20028;-63
2020/12/29 03:31:00;;;;;;;4.47;1.50;;;282.10;1715.20;;;;;;5120275;28;20302;-64
2020/12/29 03:33:26;;;;;;;4.93;2.15;;;282.20;1715.20;;;;;;5119354;28;20072;-63
2020/12/29 03:35:53;;;;;;;5.22;0.90;;;282.20;1715.20;;;;;;5119911;28;20432;-64
2020/12/29 03:38:20;;;;;;;5.18;2.22;;;282.20;1715.20;;;;;;5119481;28;20026;-64
2020/12/29 03:40:46;;;;;;;3.75;0.90;;;282.20;1715.20;;;;;;5119805;28;20027;-64
2020/12/29 03:43:13;;;;;;;3.63;0.98;;;282.20;1715.20;;;;;;5119456;28;20024;-65
2020/12/29 03:45:43;;;;;;;4.25;1.65;;;282.30;1715.20;;;;;;5119690;28;20029;-64
2020/12/29 03:48:14;;;;;;;2.83;1.02;;;282.30;1715.20;;;;;;5119700;28;20027;-62
2020/12/29 03:50:40;;;;;;;4.90;0.98;;;282.40;1715.20;;;;;;5119424;28;20310;-64
2020/12/29 03:53:06;;;;;;;9.30;1.45;;;282.40;1689.60;;;;;;5119590;28;20031;-67
2020/12/29 03:55:33;;;;;;;3.10;1.33;;;282.40;1689.60;;;;;;5119510;28;20026;-65
2020/12/29 03:57:59;;;;;;;4.45;1.25;;;282.40;1715.20;;;;;;5119567;28;20024;-62
2020/12/29 04:00:25;;;;;;;6.65;1.15;;;282.40;1689.60;;;;;;5119083;28;20031;-64
2020/12/29 04:02:51;;;;;;;8.18;2.22;;;282.40;1689.60;;;;;;5119074;28;20344;-64
2020/12/29 04:05:17;;;;;;;9.38;1.70;;;282.50;1689.60;;;;;;5119319;28;20027;-65
2020/12/29 04:07:44;;;;;;;6.78;1.75;;;282.50;1664.00;;;;;;5118687;28;20348;-66
2020/12/29 04:10:10;;;;;;;1.83;1.00;;;282.50;1689.60;;;;;;5119220;28;20019;-64
2020/12/29 04:12:36;;;;;;;3.75;1.10;;;282.30;1740.80;;;;;;5119160;28;20454;-62
2020/12/29 04:15:03;;;;;;;8.55;1.48;;;281.90;1843.20;;;;;;5118296;28;20057;-63
2020/12/29 04:17:37;;;;;;;5.28;1.10;;;256.90;2022.40;;;;;;5118964;28;20436;-64
2020/12/29 04:20:05;;;;;;;4.57;1.65;;;256.30;2176.00;;;;;;5118755;27;20353;-64
2020/12/29 04:22:31;;;;;;;1.90;1.00;;;256.10;2201.60;;;;;;5118488;28;20124;-64
2020/12/29 04:24:58;;;;;;;4.57;1.67;;;256.00;2176.00;;;;;;5118928;28;20076;-63
2020/12/29 04:27:24;;;;;;;4.32;1.33;;;256.00;2150.40;;;;;;5118868;28;20024;-64
2020/12/29 04:29:50;;;;;;;8.05;2.30;;;231.30;2227.20;;;;;;5118557;28;20057;-64
2020/12/29 04:32:17;;;;;;;3.47;1.40;;;231.20;2252.80;;;;;;5118663;28;20368;-63
2020/12/29 04:34:43;;;;;;;4.95;1.73;;;231.10;2252.80;;;;;;5118529;28;20031;-64
2020/12/29 04:37:09;;;;;;;4.55;1.40;;;231.00;2252.80;;;;;;5118683;28;20120;-65
2020/12/29 04:39:35;;;;;;;5.82;2.03;;;231.00;2252.80;;;;;;5118291;28;20517;-64
2020/12/29 04:42:09;;;;;;;8.18;2.83;;;230.90;2252.80;;;;;;5118024;28;20102;-64
2020/12/29 04:44:36;;;;;;;7.53;2.22;;;230.70;2252.80;;;;;;5118449;28;20027;-63
2020/12/29 04:47:02;;;;;;;6.60;2.42;;;230.70;2252.80;;;;;;5118747;28;20027;-64
2020/12/29 04:49:29;;;;;;;9.18;2.22;;;230.80;2252.80;;;;;;5117827;28;20231;-64
2020/12/29 04:51:57;;;;;;;5.38;2.40;;;230.80;2252.80;;;;;;5118443;28;20114;-63
2020/12/29 04:54:28;;;;;;;5.28;3.05;;;230.70;2252.80;;;;;;5118693;28;20332;-65
2020/12/29 04:56:55;;;;;;;3.78;1.60;;;230.70;2252.80;;;;;;5117572;28;20379;-63
2020/12/29 04:59:22;;;;;;;5.15;1.98;;;230.70;2252.80;;;;;;5118214;28;20031;-65
2020/12/29 05:01:48;;;;;;;4.85;2.03;;;230.80;2252.80;;;;;;5118001;28;20031;-65
2020/12/29 05:04:14;;;;;;;6.88;1.70;;;230.70;2252.80;;;;;;5117991;28;20461;-64
2020/12/29 05:06:40;;;;;;;6.78;2.15;;;230.60;2252.80;;;;;;5117830;28;20027;-63
2020/12/29 05:09:06;;;;;;;6.47;1.70;;;230.60;2252.80;;;;;;5118410;28;20027;-64
2020/12/29 05:11:36;;;;;;;5.40;1.90;;;230.80;2252.80;;;;;;5118140;28;20034;-63
2020/12/29 05:14:03;;;;;;;8.25;2.30;;;230.90;2252.80;;;;;;5118061;28;20020;-62
2020/12/29 05:16:29;;;;;;;4.30;1.40;;;230.80;2252.80;;;;;;5118234;28;20027;-64
2020/12/29 05:18:57;;;;;;;2.88;0.60;;;230.90;2252.80;;;;;;5117961;28;20035;-65
2020/12/29 05:21:25;;;;;;;1.42;0.60;;;231.00;2252.80;;;;;;5117655;28;20333;-64
2020/12/29 05:23:51;;;;;;;1.53;0.70;;;231.10;2252.80;;;;;;5117639;28;20034;-64
2020/12/29 05:26:18;;;;;;;1.15;0.63;;;231.10;2252.80;;;;;;5117655;28;20020;-62
2020/12/29 05:28:46;;;;;;;1.38;0.50;;;231.00;2252.80;;;;;;5117596;28;20446;-64
2020/12/29 05:31:12;;;;;;;5.05;0.68;;;230.90;2252.80;;;;;;5117259;28;20106;-64
2020/12/29 05:33:39;;;;;;;3.78;0.77;;;230.70;2252.80;;;;;;5117753;28;20477;-64
2020/12/29 05:36:05;;;;;;;7.43;4.43;;;230.60;2252.80;;;;;;5117670;28;20409;-65
2020/12/29 05:38:31;;;;;;;5.10;2.25;;;230.40;2252.80;;;;;;5117445;28;20092;-63
2020/12/29 05:40:59;;;;;;;25.45;13.98;;;230.40;2252.80;;;;;;5118019;28;20023;-65
2020/12/29 05:43:29;;;;;;;14.68;7.72;;;230.40;2252.80;;;;;;5117372;28;20024;-67
2020/12/29 05:45:58;;;;;;;16.55;9.20;;;230.40;2252.80;;;;;;5117710;28;20027;-66
2020/12/29 05:48:24;;;;;;;146.20;89.07;;;230.50;2252.80;;;;;;5117985;28;20023;-64
2020/12/29 05:50:50;;;;;;;254.05;149.90;;;230.60;2252.80;;;;;;5117310;28;20035;-64
2020/12/29 05:53:19;;;;;;;109.43;72.22;;;230.60;2252.80;;;;;;5117605;28;20023;-64
2020/12/29 05:55:46;;;;;;;37.28;29.75;;;230.70;2252.80;;;;;;5117538;27;20413;-64
2020/12/29 05:58:13;;;;;;;17.38;15.30;;;230.70;2252.80;;;;;;5117209;28;20424;-63
2020/12/29 06:00:40;;;;;;;19.60;17.70;;;230.70;2252.80;;;;;;5118396;28;20031;-65
2020/12/29 06:03:08;;;;;;;9.77;8.48;;;230.80;2252.80;;;;;;5121933;28;20027;-64
2020/12/29 06:05:36;;;;;;;5.28;4.75;;;230.80;2252.80;;;;;;5121970;28;20024;-64
2020/12/29 06:08:04;;;;;;;5.50;4.97;;;230.70;2252.80;;;;;;5121618;28;20027;-63
2020/12/29 06:10:32;;;;;;;7.55;5.60;;;230.80;2252.80;;;;;;5121550;28;20031;-63
2020/12/29 06:13:00;;;;;;;5.00;2.92;;;230.80;2252.80;;;;;;5121448;27;20031;-64
2020/12/29 06:15:35;;;;;;;8.93;8.03;;;230.80;2252.80;;;;;;5121534;28;20399;-62
2020/12/29 06:18:05;;;;;;;13.23;12.13;;;230.70;2252.80;;;;;;5120841;28;20348;-63
2020/12/29 06:20:44;;;;;;;4.72;4.22;;;230.70;2252.80;;;;;;5120960;28;20452;-64
2020/12/29 06:23:15;;;;;;;6.50;5.68;;;230.80;2252.80;;;;;;5121415;27;20043;-64
2020/12/29 06:25:44;;;;;;;3.45;2.65;;;230.90;2252.80;;;;;;5121644;28;20031;-62
2020/12/29 06:28:16;;;;;;;5.40;3.78;;;230.90;2252.80;;;;;;5121249;28;20092;-63
2020/12/29 06:30:43;;;;;;;5.13;1.70;;;230.80;2252.80;;;;;;5121500;28;20084;-64
2020/12/29 06:33:08;;;;;;;1.38;1.00;;;230.90;2252.80;;;;;;5121308;28;20044;-64
2020/12/29 06:35:34;;;;;;;2.50;1.60;;;230.90;2252.80;;;;;;5120582;28;20409;-63
2020/12/29 06:38:11;;;;;;;2.67;1.92;;;230.90;2252.80;;;;;;5120702;28;20462;-64
2020/12/29 06:40:37;;;;;;;2.13;1.23;;;231.00;2252.80;;;;;;5121015;28;20405;-62
2020/12/29 06:43:07;;;;;;;1.05;0.80;;;231.00;2252.80;;;;;;5120667;28;20036;-66
2020/12/29 06:45:35;;;;;;;7.30;5.20;;;231.00;2252.80;;;;;;5120943;28;20501;-65
2020/12/29 06:48:01;;;;;;;1.40;1.00;;;231.20;2252.80;;;;;;5120583;28;20047;-63
2020/12/29 06:50:32;;;;;;;7.18;5.43;;;231.30;2252.80;;;;;;5120831;28;20028;-62
2020/12/29 06:53:03;;;;;;;5.03;4.03;;;231.30;2252.80;;;;;;5121083;28;20023;-65
2020/12/29 06:55:37;;;;;;;3.83;2.97;;;256.10;2252.80;;;;;;5120406;28;20024;-65
2020/12/29 06:58:06;;;;;;;2.85;1.80;;;256.10;2252.80;;;;;;5120778;28;20032;-63
2020/12/29 07:00:35;;;;;;;4.60;3.45;;;256.10;2252.80;;;;;;5120583;28;20358;-62
2020/12/29 07:03:02;;;;;;;6.82;4.45;;;256.00;2252.80;;;;;;5120007;28;20455;-64
2020/12/29 07:05:30;;;;;;;7.13;5.25;;;256.00;2252.80;;;;;;5120570;28;20024;-63
2020/12/29 07:07:55;;;;;;;2.83;1.60;;;256.10;2252.80;;;;;;5120474;28;20035;-64
2020/12/29 07:10:25;;;;;;;7.13;1.02;;;256.20;2252.80;;;;;;5120436;28;20034;-64
2020/12/29 07:12:52;;;;;;;4.20;3.55;;;256.20;2252.80;;;;;;5119921;28;20027;-63
2020/12/29 07:15:24;;;;;;;3.45;2.50;;;256.20;2252.80;;;;;;5120641;28;20401;-63
2020/12/29 07:17:57;;;;;;;1.83;1.33;;;256.30;2252.80;;;;;;5120238;28;20027;-65
2020/12/29 07:20:26;;;;;;;1.45;0.85;;;256.30;2227.20;;;;;;5120238;28;20414;-65
2020/12/29 07:23:05;;;;;;;1.48;0.82;;;256.30;2201.60;;;;;;5120227;27;20028;-65
2020/12/29 07:25:32;;;;;;;3.70;1.80;;;256.30;2201.60;;;;;;5120294;27;20234;-65
2020/12/29 07:28:04;;;;;;;1.58;0.73;;;256.30;2252.80;;;;;;5120372;28;20027;-63
2020/12/29 07:30:31;;;;;;;2.95;1.10;;;256.30;2252.80;;;;;;5119587;28;20031;-63
2020/12/29 07:32:59;;;;;;;6.43;2.35;;;256.20;2227.20;;;;;;5119742;28;20059;-64
2020/12/29 07:35:31;;;;;;;5.43;3.70;;;256.20;2252.80;;;;;;5120291;28;20051;-65
2020/12/29 07:37:59;;;;;;;19.55;17.05;;;256.30;2252.80;;;;;;5119820;28;20329;-65
2020/12/29 07:40:26;;;;;;;21.38;13.60;;;256.30;2252.80;;;;;;5119567;28;20024;-62
2020/12/29 07:42:52;;;;;;;22.60;17.88;;;256.20;2252.80;;;;;;5120091;28;20382;-65
2020/12/29 07:45:18;;;;;;;14.05;11.13;;;256.30;2252.80;;;;;;5113604;28;20020;-64
2020/12/29 07:47:44;;;;;;;24.35;18.45;;;256.40;2252.80;;;;;;5107804;28;20047;-64
2020/12/29 07:50:10;;;;;;;5.75;3.55;;;256.60;2227.20;;;;;;5107574;28;20050;-63
2020/12/29 07:52:36;;;;;;;2.30;1.27;;;256.40;2252.80;;;;;;5110541;28;20429;-64
2020/12/29 07:55:06;;;;;;;8.25;6.97;;;256.30;2252.80;;;;;;5106641;28;20080;-64
2020/12/29 07:57:33;;;;;;;19.67;17.58;;;256.50;2252.80;;;;;;5099800;28;20342;-64
2020/12/29 08:00:10;;;;;;;4.28;3.30;;;256.60;2252.80;;;;;;5098780;28;20035;-65
2020/12/29 08:02:35;;;;;;;18.17;16.17;;;256.70;2227.20;;;;;;5098756;28;20405;-64
2020/12/29 08:05:02;;;;;;;7.70;5.03;;;256.80;2227.20;;;;;;5098962;28;20100;-64
2020/12/29 08:07:28;;;;;;;8.27;6.28;;;256.80;2252.80;;;;;;5098899;28;20111;-64
2020/12/29 08:09:53;;;;;;;15.00;13.50;;;256.80;2252.80;;;;;;5098883;28;20116;-62
2020/12/29 08:12:20;;;;;;;6.97;4.22;;;256.80;2227.20;;;;;;5098487;28;20027;-65
2020/12/29 08:14:45;;;;;;;3.42;2.83;;;256.80;2227.20;;;;;;5097751;28;20103;-65
2020/12/29 08:17:11;;;;;;;2.47;1.55;;;256.80;2227.20;;;;;;5097840;28;20058;-64
2020/12/29 08:19:37;;;;;;;2.85;1.50;;;256.70;2252.80;;;;;;5096800;28;20413;-64
2020/12/29 08:22:05;;;;;;;6.15;3.78;;;256.70;2227.20;;;;;;5098645;28;20413;-64
2020/12/29 08:24:31;;;;;;;4.38;2.70;;;256.80;2201.60;;;;;;5097096;28;20111;-63
2020/12/29 08:26:58;;;;;;;7.10;4.55;;;256.80;2227.20;;;;;;5097934;28;20081;-67
2020/12/29 08:29:24;;;;;;;4.63;1.92;;;256.80;2201.60;;;;;;5098704;28;20027;-63
2020/12/29 08:32:10;;;;;;;5.05;4.00;;;256.90;2201.60;;;;;;5098425;28;20035;-63
2020/12/29 08:34:38;;;;;;;5.38;3.00;;;256.90;2201.60;;;;;;5098103;28;20036;-63
2020/12/29 08:37:06;;;;;;;86.00;51.95;;;256.90;2201.60;;;;;;5098053;28;20030;-63
2020/12/29 08:39:47;;;;;;;68.72;44.58;;;256.90;2201.60;;;;;;5098118;28;20035;-63
2020/12/29 08:42:17;;;;;;;79.53;53.25;;;256.90;2201.60;;;;;;5098285;28;20398;-64
2020/12/29 08:44:44;;;;;;;47.05;32.80;;;256.90;2201.60;;;;;;5098186;28;20413;-64
2020/12/29 08:47:14;;;;;;;47.75;32.13;;;256.80;2201.60;;;;;;5097662;28;20076;-64
2020/12/29 08:49:40;;;;;;;83.10;57.55;;;256.80;2227.20;;;;;;5098090;28;20027;-64
2020/12/29 08:52:06;;;;;;;54.10;39.30;;;256.80;2227.20;;;;;;5098345;28;20390;-66
2020/12/29 08:54:36;;;;;;;52.47;35.60;;;256.90;2201.60;;;;;;5097748;28;20028;-64
2020/12/29 08:57:02;;;;;;;25.92;17.65;;;281.60;2201.60;;;;;;5097345;28;20049;-66
2020/12/29 08:59:39;;;;;;;34.03;26.05;;;281.60;2176.00;;;;;;5097796;28;20361;-64
2020/12/29 09:02:07;;;;;;;24.88;17.83;;;281.60;2201.60;;;;;;5097851;28;20036;-64
2020/12/29 09:04:36;;;;;;;27.20;18.17;;;281.60;2201.60;;;;;;5097306;28;20058;-65
2020/12/29 09:07:13;;;;;;;17.48;11.88;;;281.70;2176.00;;;;;;5098742;28;20475;-63
2020/12/29 09:10:03;;;;;;;5.75;4.22;;;281.90;2150.40;;;;;;5106059;28;20035;-65
2020/12/29 09:12:31;;;;;;;8.63;5.82;;;281.90;2150.40;;;;;;5099920;28;20453;-64
2020/12/29 09:15:04;;;;;;;9.20;7.15;;;281.90;2124.80;;;;;;5108699;28;20027;-63
2020/12/29 09:17:32;;;;;;;8.40;7.53;;;282.00;2124.80;;;;;;5117475;28;20023;-64
2020/12/29 09:20:24;;;;;;;7.25;5.47;;;282.00;2124.80;;;;;;5116171;28;20047;-64
2020/12/29 09:22:55;;;;;;;6.68;4.40;;;281.90;2150.40;;;;;;5116892;28;20110;-63
2020/12/29 09:25:43;;;;;;;6.80;3.13;;;281.90;2150.40;;;;;;5117379;28;20031;-63
2020/12/29 09:28:13;;;;;;;4.57;2.57;;;281.80;2150.40;;;;;;5117553;28;20310;-64
2020/12/29 09:30:41;;;;;;;7.88;2.95;;;281.70;2176.00;;;;;;5117710;28;20031;-64
2020/12/29 09:33:07;;;;;;;7.00;2.50;;;281.70;2176.00;;;;;;5117366;28;20055;-63
2020/12/29 09:35:33;;;;;;;27.05;5.38;;;281.90;2150.40;;;;;;5117371;28;20028;-62
2020/12/29 09:38:02;;;;;;;17.60;6.03;;;281.90;2150.40;;;;;;5116475;28;20020;-61
2020/12/29 09:40:29;;;;;;;;;;;282.00;2124.80;;;;;;5117593;28;20028;-64
2020/12/29 09:42:55;;;;;;;7.60;3.90;;;282.00;2124.80;;;;;;5117761;28;19904;-65
2020/12/29 09:45:25;;;;;;;6.43;3.65;;;281.90;2150.40;;;;;;5117336;28;20024;-67
2020/12/29 09:47:51;;;;;;;8.77;5.38;;;281.90;2099.20;;;;;;5117986;28;20031;-63
2020/12/29 09:50:17;;;;;;;6.47;3.30;;;281.90;2150.40;;;;;;5117247;28;20080;-62
2020/12/29 09:52:43;;;;;;;8.20;3.70;;;282.10;2124.80;;;;;;5117656;28;20034;-65
2020/12/29 09:55:09;;;;;;;3.42;1.20;;;282.10;2124.80;;;;;;5117604;28;20106;-61
2020/12/29 09:57:35;;;;;;;5.15;2.10;;;282.10;2099.20;;;;;;5117342;28;20077;-62
2020/12/29 10:00:01;;;;;;;52.90;41.67;;;282.10;2124.80;;;;;;5117275;28;20063;-65
2020/12/29 10:02:27;;;;;;;6.65;4.13;;;282.20;2099.20;;;;;;5117387;28;20073;-64
2020/12/29 10:04:53;;;;;;;2.22;1.42;;;282.20;2099.20;;;;;;5117393;28;20095;-63
2020/12/29 10:07:19;;;;;;;4.30;1.67;;;282.20;2099.20;;;;;;5116894;28;20480;-64
2020/12/29 10:09:44;;;;;;;6.82;2.22;;;282.20;2124.80;;;;;;5117101;28;20038;-67
2020/12/29 10:12:11;;;;;;;4.22;2.78;;;282.30;2099.20;;;;;;5116430;28;20024;-65
2020/12/29 10:14:36;;;;;;;2.63;1.90;;;282.20;2124.80;;;;;;5117302;28;20145;-63
2020/12/29 10:17:02;;;;;;;5.82;3.88;;;282.10;2150.40;;;;;;5117262;28;20397;-65
2020/12/29 10:19:28;;;;;;;5.53;3.13;;;282.10;2150.40;;;;;;5115352;28;20347;-66
2020/12/29 10:21:55;;;;;;;16.75;8.88;;;282.30;2124.80;;;;;;5116840;28;20027;-66
2020/12/29 10:24:21;;;;;;;11.48;7.50;;;282.40;2124.80;;;;;;5117090;28;20035;-65
2020/12/29 10:26:52;;;;;;;5.28;3.55;;;282.40;2150.40;;;;;;5116591;28;20016;-63
2020/12/29 10:29:19;;;;;;;7.45;6.13;;;282.30;2150.40;;;;;;5117353;28;20027;-63
2020/12/29 10:31:45;;;;;;;5.22;3.60;;;282.30;2150.40;;;;;;5117414;28;20019;-63
2020/12/29 10:34:15;;;;;;;4.50;2.78;;;282.40;2150.40;;;;;;5117545;28;20090;-65
2020/12/29 10:36:42;;;;;;;3.47;1.63;;;282.40;2124.80;;;;;;5109885;28;20096;-65
2020/12/29 10:39:09;;;;;;;2.28;1.38;;;282.40;2124.80;;;;;;5116429;28;20028;-64
2020/12/29 10:41:37;;;;;;;25.27;14.07;;;282.50;2124.80;;;;;;5114120;28;20126;-66
2020/12/29 10:44:03;;;;;;;12.73;5.05;;;282.50;2150.40;;;;;;5113449;28;20027;-64
2020/12/29 10:46:29;;;;;;;11.32;5.70;;;282.50;2124.80;;;;;;5114379;28;20402;-65
2020/12/29 10:48:55;;;;;;;28.88;13.07;;;282.40;2150.40;;;;;;5117518;28;20071;-64
2020/12/29 10:51:23;;;;;;;6.35;3.70;;;282.30;2176.00;;;;;;5118438;28;20050;-63
2020/12/29 10:53:50;;;;;;;8.38;4.53;;;282.20;2176.00;;;;;;5118244;28;20019;-64
2020/12/29 10:56:17;;;;;;;5.65;3.08;;;282.30;2150.40;;;;;;5118609;28;20165;-64
2020/12/29 10:58:42;;;;;;;5.38;2.72;;;282.30;2150.40;;;;;;5119033;28;20058;-64
2020/12/29 11:01:12;;;;;;;18.92;8.10;;;282.30;2124.80;;;;;;5120461;28;20031;-64
2020/12/29 11:03:38;;;;;;;9.48;4.30;;;282.30;2150.40;;;;;;5107960;28;20031;-64
2020/12/29 11:06:21;;;;;;;7.55;4.97;;;282.30;2124.80;;;;;;5111654;27;20023;-64
2020/12/29 11:08:48;;;;;;;19.40;10.60;;;282.40;2124.80;;;;;;5106423;28;20025;-63
2020/12/29 11:11:15;;;;;;;11.60;6.60;;;282.40;2099.20;;;;;;5107766;28;20020;-66
2020/12/29 11:13:44;;;;;;;16.08;5.60;;;282.40;2124.80;;;;;;5107876;28;20024;-63
2020/12/29 11:16:18;;;;;;;7.30;3.33;;;282.40;2124.80;;;;;;5107852;28;20023;-63
2020/12/29 11:18:45;;;;;;;13.88;7.38;;;282.30;2124.80;;;;;;5107961;28;20020;-65
2020/12/29 11:21:13;;;;;;;7.75;4.65;;;282.30;2124.80;;;;;;5107473;28;20038;-63
2020/12/29 11:23:39;;;;;;;13.23;8.70;;;282.40;2099.20;;;;;;5107759;28;20073;-65
2020/12/29 11:26:05;;;;;;;7.80;4.55;;;282.40;2099.20;;;;;;5107513;28;20370;-63
2020/12/29 11:28:31;;;;;;;7.22;4.53;;;282.30;2124.80;;;;;;5108979;28;20031;-66
2020/12/29 11:31:05;;;;;;;6.22;1.40;;;282.20;2124.80;;;;;;5107389;28;20016;-72
2020/12/29 11:33:34;;;;;;;1.63;1.23;;;282.10;2150.40;;;;;;5106647;28;20063;-69
2020/12/29 11:36:00;;;;;;;;;;;282.20;2150.40;;;;;;5107290;28;20016;-63
2020/12/29 11:38:26;;;;;;;4.20;3.38;;;282.20;2150.40;;;;;;5112816;28;20327;-62
2020/12/29 11:40:52;;;;;;;16.95;11.23;;;282.20;2176.00;;;;;;5105416;28;20388;-64
2020/12/29 11:43:17;;;;;;;7.25;5.00;;;282.40;2124.80;;;;;;5099151;28;20443;-63
2020/12/29 11:45:50;;;;;;;13.05;6.90;;;282.50;2124.80;;;;;;5099208;28;20024;-63
2020/12/29 11:48:16;;;;;;;6.95;4.22;;;307.20;2150.40;;;;;;5099219;28;20031;-64
2020/12/29 11:50:47;;;;;;;4.72;3.53;;;307.20;2124.80;;;;;;5099123;28;20047;-64
2020/12/29 11:53:17;;;;;;;12.55;6.93;;;307.20;2124.80;;;;;;5098833;28;20031;-64
2020/12/29 11:55:54;;;;;;;4.47;2.63;;;307.30;2124.80;;;;;;5098924;28;20020;-61
2020/12/29 11:58:24;;;;;;;4.53;2.63;;;307.40;2124.80;;;;;;5063618;28;20047;-62
2020/12/29 12:00:56;;;;;;;3.70;1.52;;;307.40;2124.80;;;;;;5098813;28;20028;-63
2020/12/29 12:03:24;;;;;;;5.15;1.77;;;307.50;2099.20;;;;;;5115687;28;20023;-61
2020/12/29 12:05:54;;;;;;;6.13;3.60;;;307.30;2150.40;;;;;;5118576;28;20078;-63
2020/12/29 12:08:21;;;;;;;12.27;9.40;;;307.50;2150.40;;;;;;5118954;28;20027;-65
2020/12/29 12:10:47;;;;;;;9.15;6.78;;;307.70;2124.80;;;;;;5116997;28;20371;-64
2020/12/29 12:13:14;;;;;;;5.97;3.22;;;307.70;2124.80;;;;;;5117586;28;20081;-65
2020/12/29 12:15:44;;;;;;;18.23;11.82;;;307.70;2124.80;;;;;;5118892;28;20420;-64
2020/12/29 12:18:10;;;;;;;10.15;8.13;;;307.80;2124.80;;;;;;5118784;28;20177;-64